Florencia — IBPD — position and weather

sailwx.info

Track history (hours):
 
Tides and Currents Weather Stations Pressure Air Temp Water Temp Dewpoint Dewpoint Depression Visibility Wind Speed Wind Dir Waves Ship Positions

Florencia

Last reported at 2014-Oct-25 12:27 UTC. Time now 2014-Oct-26 03:52 UTC.
Position N 38°14' E 012°34'.

Length 186 m; draft 5.8 m.

Type: Ship. MMSI: 247105900.

Date/timePositionNaut miles runAvg speedWind from/ knotsBaromVisibWave heightAir tempDewpointWater temp
2014-Oct-25 12:27N 38°14' E 012°34'1921.1
2014-Oct-25 11:33N 38°17' E 012°58'2020.5
2014-Oct-25 10:33N 38°15' E 013°24'7 7.3
2014-Oct-25 09:34N 38°08' E 013°22'0 0.0
2014-Oct-25 08:34N 38°08' E 013°22'0 0.0
2014-Oct-25 07:34N 38°08' E 013°22'9 8.6
2014-Oct-25 06:34N 38°16' E 013°24'2121.1
2014-Oct-25 05:34N 38°37' E 013°21'  
2014-Oct-22 00:33N 38°50' E 013°35'2221.7
2014-Oct-21 23:33N 38°28' E 013°38'2221.7
2014-Oct-21 22:33N 38°07' E 013°42'8 7.7
2014-Oct-21 21:33N 37°59' E 013°42'0 0.0
2014-Oct-21 20:33N 37°59' E 013°42'0 0.0
2014-Oct-21 19:33N 37°59' E 013°42'0 0.0
2014-Oct-21 18:33N 37°59' E 013°42'0 0.0
2014-Oct-21 17:33N 37°59' E 013°42'0 0.0
2014-Oct-21 16:33N 37°59' E 013°42'0 0.0
2014-Oct-21 15:33N 37°59' E 013°42'0 0.0
2014-Oct-21 14:33N 37°59' E 013°42'0 0.0
2014-Oct-21 13:33N 37°59' E 013°42'0 0.0
2014-Oct-21 12:33N 37°59' E 013°42'0 0.0
2014-Oct-21 11:33N 37°59' E 013°42'0 0.0
2014-Oct-21 10:33N 37°59' E 013°42'0 0.0
2014-Oct-21 09:33N 37°59' E 013°42'0 0.0
2014-Oct-21 08:33N 37°59' E 013°42'0 0.0
2014-Oct-21 07:33N 37°59' E 013°42'9 8.5
2014-Oct-21 06:33N 38°08' E 013°44'2221.7
2014-Oct-21 05:33N 38°29' E 013°38'2221.9
2014-Oct-21 04:33N 38°49' E 013°26'7 0.2
2014-Oct-19 20:13N 38°48' E 013°16'1421.4
2014-Oct-19 19:33N 38°34' E 013°21'2221.8
2014-Oct-19 18:33N 38°13' E 013°25'6 5.1
2014-Oct-19 17:29N 38°08' E 013°22'0 0.0
2014-Oct-19 16:32N 38°08' E 013°22'0 0.0
2014-Oct-19 15:32N 38°08' E 013°22'0 0.0
2014-Oct-19 14:32N 38°08' E 013°22'0 0.0
2014-Oct-19 13:33N 38°08' E 013°22'0 0.0
2014-Oct-19 12:33N 38°08' E 013°22'0 0.0
2014-Oct-19 11:33N 38°08' E 013°22'0 0.0
2014-Oct-19 10:33N 38°08' E 013°22'1 0.6
2014-Oct-19 09:33N 38°07' E 013°22'1111.3
2014-Oct-19 08:33N 38°18' E 013°17'2222.2
2014-Oct-19 07:33N 38°18' E 012°48'10721.1
2014-Oct-19 02:30N 37°20' E 010°55'2021.6
2014-Oct-19 01:33N 37°05' E 010°38'2121.1
2014-Oct-19 00:32N 36°48' E 010°22'3 1.4
2014-Oct-18 22:33N 36°49' E 010°18'0 0.0
2014-Oct-18 21:33N 36°49' E 010°18'0 0.0
2014-Oct-18 20:33N 36°49' E 010°18'0 0.0
2014-Oct-18 19:33N 36°49' E 010°18'1 1.2
2014-Oct-18 18:33N 36°48' E 010°20'1818.5
2014-Oct-18 17:33N 37°01' E 010°35'2222.0
2014-Oct-18 16:33N 37°18' E 010°54'10721.4
2014-Oct-18 11:33N 38°16' E 012°47'2121.5
2014-Oct-18 10:33N 38°17' E 013°14'1211.5
2014-Oct-18 09:33N 38°08' E 013°22'0 0.4
2014-Oct-18 08:33N 38°08' E 013°22'0 0.0
2014-Oct-18 07:33N 38°08' E 013°22'4 4.3
2014-Oct-18 06:33N 38°12' E 013°25'2121.0
2014-Oct-18 05:33N 38°32' E 013°22'2120.9
2014-Oct-18 04:33N 38°53' E 013°15'2221.2
2014-Oct-18 03:30N 39°14' E 013°06'80 2.3
2014-Oct-16 16:27N 37°59' E 013°42'0 0.0
2014-Oct-16 15:33N 37°59' E 013°42'0 0.0
2014-Oct-16 14:33N 37°59' E 013°42'17 2.1
2014-Oct-16 06:33N 38°16' E 013°43'2121.0
2014-Oct-16 05:34N 38°35' E 013°34'2121.2
2014-Oct-16 04:33N 38°55' E 013°23'  
Track history (hours):
 
Tides and Currents Weather Stations Pressure Air Temp Water Temp Dewpoint Dewpoint Depression Visibility Wind Speed Wind Dir Waves Ship Positions

Florencia

Last reported at 2014-Oct-25 12:27 UTC. Time now 2014-Oct-26 03:52 UTC.
Position N 38°14' E 012°34'.

Length 186 m; draft 5.8 m.

Type: Ship. MMSI: 247105900.

Date/timePositionNaut miles runAvg speedWind from/ knotsBaromVisibWave heightAir tempDewpointWater temp
2014-Oct-25 12:27N 38°14' E 012°34'1921.1
2014-Oct-25 11:33N 38°17' E 012°58'2020.5
2014-Oct-25 10:33N 38°15' E 013°24'7 7.3
2014-Oct-25 09:34N 38°08' E 013°22'0 0.0
2014-Oct-25 08:34N 38°08' E 013°22'0 0.0
2014-Oct-25 07:34N 38°08' E 013°22'9 8.6
2014-Oct-25 06:34N 38°16' E 013°24'2121.1
2014-Oct-25 05:34N 38°37' E 013°21'  
2014-Oct-22 00:33N 38°50' E 013°35'2221.7
2014-Oct-21 23:33N 38°28' E 013°38'2221.7
2014-Oct-21 22:33N 38°07' E 013°42'8 7.7
2014-Oct-21 21:33N 37°59' E 013°42'0 0.0
2014-Oct-21 20:33N 37°59' E 013°42'0 0.0
2014-Oct-21 19:33N 37°59' E 013°42'0 0.0
2014-Oct-21 18:33N 37°59' E 013°42'0 0.0
2014-Oct-21 17:33N 37°59' E 013°42'0 0.0
2014-Oct-21 16:33N 37°59' E 013°42'0 0.0
2014-Oct-21 15:33N 37°59' E 013°42'0 0.0
2014-Oct-21 14:33N 37°59' E 013°42'0 0.0
2014-Oct-21 13:33N 37°59' E 013°42'0 0.0
2014-Oct-21 12:33N 37°59' E 013°42'0 0.0
2014-Oct-21 11:33N 37°59' E 013°42'0 0.0
2014-Oct-21 10:33N 37°59' E 013°42'0 0.0
2014-Oct-21 09:33N 37°59' E 013°42'0 0.0
2014-Oct-21 08:33N 37°59' E 013°42'0 0.0
2014-Oct-21 07:33N 37°59' E 013°42'9 8.5
2014-Oct-21 06:33N 38°08' E 013°44'2221.7
2014-Oct-21 05:33N 38°29' E 013°38'2221.9
2014-Oct-21 04:33N 38°49' E 013°26'7 0.2
2014-Oct-19 20:13N 38°48' E 013°16'1421.4
2014-Oct-19 19:33N 38°34' E 013°21'2221.8
2014-Oct-19 18:33N 38°13' E 013°25'6 5.1
2014-Oct-19 17:29N 38°08' E 013°22'0 0.0
2014-Oct-19 16:32N 38°08' E 013°22'0 0.0
2014-Oct-19 15:32N 38°08' E 013°22'0 0.0
2014-Oct-19 14:32N 38°08' E 013°22'0 0.0
2014-Oct-19 13:33N 38°08' E 013°22'0 0.0
2014-Oct-19 12:33N 38°08' E 013°22'0 0.0
2014-Oct-19 11:33N 38°08' E 013°22'0 0.0
2014-Oct-19 10:33N 38°08' E 013°22'1 0.6
2014-Oct-19 09:33N 38°07' E 013°22'1111.3
2014-Oct-19 08:33N 38°18' E 013°17'2222.2
2014-Oct-19 07:33N 38°18' E 012°48'10721.1
2014-Oct-19 02:30N 37°20' E 010°55'2021.6
2014-Oct-19 01:33N 37°05' E 010°38'2121.1
2014-Oct-19 00:32N 36°48' E 010°22'3 1.4
2014-Oct-18 22:33N 36°49' E 010°18'0 0.0
2014-Oct-18 21:33N 36°49' E 010°18'0 0.0
2014-Oct-18 20:33N 36°49' E 010°18'0 0.0
2014-Oct-18 19:33N 36°49' E 010°18'1 1.2
2014-Oct-18 18:33N 36°48' E 010°20'1818.5
2014-Oct-18 17:33N 37°01' E 010°35'2222.0
2014-Oct-18 16:33N 37°18' E 010°54'10721.4
2014-Oct-18 11:33N 38°16' E 012°47'2121.5
2014-Oct-18 10:33N 38°17' E 013°14'1211.5
2014-Oct-18 09:33N 38°08' E 013°22'0 0.4
2014-Oct-18 08:33N 38°08' E 013°22'0 0.0
2014-Oct-18 07:33N 38°08' E 013°22'4 4.3
2014-Oct-18 06:33N 38°12' E 013°25'2121.0
2014-Oct-18 05:33N 38°32' E 013°22'2120.9
2014-Oct-18 04:33N 38°53' E 013°15'2221.2
2014-Oct-18 03:30N 39°14' E 013°06'80 2.3
2014-Oct-16 16:27N 37°59' E 013°42'0 0.0
2014-Oct-16 15:33N 37°59' E 013°42'0 0.0
2014-Oct-16 14:33N 37°59' E 013°42'17 2.1
2014-Oct-16 06:33N 38°16' E 013°43'2121.0
2014-Oct-16 05:34N 38°35' E 013°34'2121.2
2014-Oct-16 04:33N 38°55' E 013°23'  

Dump ship's entire track history